Time;durP1;ratioP1;P1;durP2;ratioP2;P2;SDS_P1;SDS_P2;PMS_P1;PMS_P2;Temp;Humidity;BMP_temperature;BMP_pressure;BME280_temperature;BME280_humidity;BME280_pressure;Samples;Min_cycle;Max_cycle;Signal;HPM_P1;HPM_P2
2024/02/08 08:11:57;;;;;;;1.10;0.50;;;;;;;7.53;100.00;95265.69;2115702;27;20559;-67
2024/02/08 09:23:25;;;;;;;1.38;0.60;;;;;;;8.10;100.00;95246.06;2084226;28;20594;-69
2024/02/08 09:26:48;;;;;;;1.20;0.70;;;;;;;8.13;100.00;95230.31;2082502;28;20581;-70
2024/02/08 09:30:09;;;;;;;2.72;1.00;;;;;;;8.16;100.00;95232.72;2084015;28;20573;-68
2024/02/08 09:33:03;;;;;;;2.08;0.70;;;;;;;8.17;100.00;95230.03;2075339;28;20571;-62
2024/02/08 09:35:54;;;;;;;1.58;0.75;;;;;;;8.27;100.00;95237.31;2083506;28;20551;-64
2024/02/08 09:46:10;;;;;;;4.40;0.82;;;;;;;8.36;100.00;95241.13;2101895;27;20541;-68
2024/02/08 09:49:21;;;;;;;1.00;0.60;;;;;;;8.47;100.00;95238.78;2081501;28;21124;-68
2024/02/08 09:50:37;;;;;;;1.30;0.60;;;;;;;8.58;100.00;95241.59;2080890;28;20213;-69
2024/02/08 09:53:40;;;;;;;1.27;0.77;;;;;;;8.64;100.00;95241.19;2083708;28;20558;-69
2024/02/08 09:56:49;;;;;;;1.50;0.80;;;;;;;8.65;100.00;95237.69;2091126;28;20551;-68
2024/02/08 10:02:36;;;;;;;1.40;0.80;;;;;;;8.78;100.00;95244.75;2086334;28;20557;-69
2024/02/08 10:05:51;;;;;;;1.50;0.80;;;;;;;8.79;100.00;95244.66;2084051;28;20563;-69
2024/02/08 10:08:35;;;;;;;2.72;0.65;;;;;;;8.83;100.00;95233.13;2085543;28;20557;-71
2024/02/08 10:09:40;;;;;;;1.33;0.65;;;;;;;8.89;100.00;95231.94;2084271;28;20350;-71
2024/02/08 10:10:56;;;;;;;1.00;0.50;;;;;;;8.89;100.00;95231.94;2083545;28;20201;-71
2024/02/08 10:12:18;;;;;;;1.00;0.50;;;;;;;8.97;100.00;95232.31;2078336;28;20202;-71
2024/02/08 10:13:40;;;;;;;1.27;0.70;;;;;;;9.11;100.00;95238.44;2064839;28;20262;-72
2024/02/08 10:14:44;;;;;;;1.10;0.70;;;;;;;9.11;100.00;95230.63;2063408;28;20203;-71
2024/02/08 10:15:54;;;;;;;1.10;0.60;;;;;;;9.03;100.00;95205.06;2063166;28;20286;-71
2024/02/08 10:17:00;;;;;;;1.33;0.70;;;;;;;9.20;100.00;95226.63;2063885;28;20686;-71
2024/02/08 10:18:10;;;;;;;1.20;0.60;;;;;;;9.14;100.00;95207.84;2065241;28;20338;-64
2024/02/08 10:40:35;;;;;;;1.48;0.68;;;;;;;8.72;100.00;95214.72;2083227;28;20580;-63
2024/02/08 10:43:37;;;;;;;1.20;0.70;;;;;;;8.82;100.00;95221.06;2085232;28;21106;-63
2024/02/08 10:44:38;;;;;;;1.10;0.50;;;;;;;8.87;100.00;95207.75;2080439;28;20224;-63
2024/02/08 10:45:43;;;;;;;1.30;0.60;;;;;;;8.91;100.00;95213.63;2079367;28;20194;-62
2024/02/08 10:46:47;;;;;;;1.40;0.60;;;;;;;9.01;100.00;95204.31;2077878;28;20248;-63
2024/02/08 10:47:51;;;;;;;1.45;0.60;;;;;;;8.99;100.00;95187.97;2073967;28;20932;-63
2024/02/08 10:48:53;;;;;;;1.15;0.70;;;;;;;9.22;100.00;95209.97;2073593;28;20716;-63
2024/02/08 10:49:54;;;;;;;2.00;0.70;;;;;;;9.44;100.00;95199.03;2070696;28;20238;-63
2024/02/08 10:51:03;;;;;;;1.10;0.60;;;;;;;9.64;100.00;95213.41;2072218;28;20245;-63
2024/02/08 10:52:05;;;;;;;1.20;0.68;;;;;;;9.96;100.00;95200.06;2073447;28;20193;-63
2024/02/08 10:53:16;;;;;;;1.17;0.50;;;;;;;10.00;99.47;95215.53;2070359;28;20238;-62
2024/02/08 10:54:23;;;;;;;1.10;0.60;;;;;;;10.03;98.97;95194.44;2076101;28;20846;-63
2024/02/08 10:55:36;;;;;;;1.20;0.60;;;;;;;10.13;99.09;95195.50;2080304;28;20673;-63
2024/02/08 10:56:41;;;;;;;1.73;0.50;;;;;;;10.14;97.50;95205.00;2068155;28;20233;-63
2024/02/08 10:58:12;;;;;;;1.40;0.60;;;;;;;10.09;99.00;95187.06;2070584;28;20225;-62
2024/02/08 11:03:00;;;;;;;1.75;0.50;;;;;;;10.06;98.15;95176.84;2069025;28;20274;-74
2024/02/08 11:05:12;;;;;;;1.10;0.55;;;;;;;10.02;96.52;95175.38;2072462;28;20208;-73
2024/02/08 11:06:34;;;;;;;1.20;0.50;;;;;;;10.19;96.30;95169.03;2070377;28;20780;-76
2024/02/08 11:07:37;;;;;;;1.10;0.50;;;;;;;10.28;96.40;95164.97;2072544;28;20225;-75
2024/02/08 11:08:50;;;;;;;1.00;0.50;;;;;;;10.37;96.96;95171.38;2068340;28;20199;-76
2024/02/08 11:09:52;;;;;;;2.13;0.80;;;;;;;10.48;97.25;95173.28;2068951;28;20202;-76
2024/02/08 11:10:58;;;;;;;1.40;0.60;;;;;;;10.38;96.31;95167.84;2067633;28;20806;-75
2024/02/08 11:12:14;;;;;;;1.10;0.50;;;;;;;10.37;96.85;95166.16;2073916;28;20281;-76
2024/02/08 11:13:29;;;;;;;1.10;0.50;;;;;;;10.28;96.78;95152.78;2069406;28;20214;-76
2024/02/08 11:14:40;;;;;;;1.10;0.60;;;;;;;10.22;97.38;95152.34;2070430;28;20201;-76
2024/02/08 11:15:49;;;;;;;6.22;3.40;;;;;;;10.28;96.74;95158.00;2071790;28;20198;-71
2024/02/08 11:16:54;;;;;;;1.27;0.70;;;;;;;10.32;96.17;95170.81;2069658;28;20233;-75
2024/02/08 11:17:58;;;;;;;3.60;0.60;;;;;;;10.36;97.33;95154.03;2069510;28;20246;-76
2024/02/08 11:19:04;;;;;;;1.20;0.60;;;;;;;10.26;96.69;95157.25;2056327;28;20210;-75
2024/02/08 11:20:16;;;;;;;1.35;0.50;;;;;;;10.14;96.60;95150.25;2065360;28;20211;-75
2024/02/08 11:21:24;;;;;;;1.30;0.70;;;;;;;10.17;96.35;95151.81;2070555;28;20294;-75
2024/02/08 11:22:43;;;;;;;1.75;0.80;;;;;;;10.15;96.73;95164.94;2069403;28;20222;-75
2024/02/08 11:23:57;;;;;;;1.73;0.70;;;;;;;10.06;96.81;95132.50;2068140;28;20838;-76
2024/02/08 11:24:58;;;;;;;1.40;0.60;;;;;;;10.19;97.60;95147.34;2067644;28;20203;-76
2024/02/08 11:26:08;;;;;;;2.55;1.20;;;;;;;10.12;98.42;95139.91;2071138;28;20677;-75
2024/02/08 11:27:13;;;;;;;4.95;2.42;;;;;;;10.03;97.53;95147.50;2070155;28;20218;-75
2024/02/08 11:28:24;;;;;;;2.17;1.10;;;;;;;10.06;97.88;95139.50;2074668;28;20221;-76
2024/02/08 11:29:28;;;;;;;2.42;1.08;;;;;;;10.10;98.03;95131.34;2067955;28;20206;-75
2024/02/08 11:30:34;;;;;;;3.13;0.95;;;;;;;10.15;96.94;95128.44;2069572;28;20233;-75
2024/02/08 11:31:41;;;;;;;1.25;0.63;;;;;;;10.10;96.66;95113.09;2070569;28;20198;-75
2024/02/08 11:32:56;;;;;;;1.48;0.60;;;;;;;10.19;96.61;95131.69;2073050;28;20227;-76
2024/02/08 11:34:15;;;;;;;1.58;0.60;;;;;;;10.12;96.04;95141.69;2073885;28;20564;-75
2024/02/08 11:35:21;;;;;;;2.20;0.70;;;;;;;10.21;95.59;95138.47;2073719;28;20276;-75
2024/02/08 11:36:34;;;;;;;2.30;0.80;;;;;;;10.34;95.70;95132.44;2074046;28;20410;-75
2024/02/08 11:37:37;;;;;;;1.00;0.60;;;;;;;10.28;96.04;95133.66;2078026;28;20233;-75
2024/02/08 11:38:46;;;;;;;2.95;0.60;;;;;;;10.24;95.96;95138.25;2068116;28;20227;-75
2024/02/08 11:39:58;;;;;;;1.17;0.60;;;;;;;10.21;97.08;95135.84;2072114;28;20291;-75
2024/02/08 11:41:10;;;;;;;1.45;0.68;;;;;;;10.16;96.58;95104.03;2075692;28;20557;-74
2024/02/08 11:42:19;;;;;;;2.00;0.80;;;;;;;10.28;96.88;95110.19;2081658;28;20206;-74
2024/02/08 11:43:25;;;;;;;1.60;0.70;;;;;;;10.39;96.06;95119.94;2074141;28;20285;-75
2024/02/08 11:44:35;;;;;;;2.55;0.77;;;;;;;10.32;95.82;95121.25;2072311;28;20225;-75
2024/02/08 11:45:38;;;;;;;1.30;0.70;;;;;;;10.26;95.41;95118.13;2071324;28;20206;-74
2024/02/08 11:46:45;;;;;;;3.50;0.60;;;;;;;10.10;96.00;95118.31;2068197;28;20296;-74
2024/02/08 11:47:49;;;;;;;1.45;0.70;;;;;;;10.21;96.53;95121.97;2068240;28;20593;-74
2024/02/08 11:48:53;;;;;;;2.33;0.60;;;;;;;10.34;96.98;95117.59;2078782;28;20209;-75
2024/02/08 11:50:03;;;;;;;1.63;0.90;;;;;;;10.44;95.51;95123.88;2077484;28;20208;-74
2024/02/08 11:51:11;;;;;;;2.85;0.80;;;;;;;10.38;95.97;95120.88;2069642;28;20566;-74
2024/02/08 11:52:19;;;;;;;2.45;0.80;;;;;;;10.46;96.70;95123.78;2070878;28;20813;-74
2024/02/08 11:53:33;;;;;;;4.65;1.10;;;;;;;10.35;96.29;95108.84;2068937;28;20304;-75
2024/02/08 11:54:39;;;;;;;3.40;1.27;;;;;;;10.40;96.37;95111.16;2063814;28;20201;-75
2024/02/08 11:55:44;;;;;;;4.22;1.17;;;;;;;10.32;96.55;95116.03;2060486;28;20828;-74
2024/02/08 11:56:48;;;;;;;2.40;1.00;;;;;;;10.27;97.57;95114.56;2063856;28;20226;-75
2024/02/08 11:57:53;;;;;;;7.43;0.82;;;;;;;10.20;97.64;95100.28;2058740;28;20231;-75
2024/02/08 11:58:56;;;;;;;8.45;0.80;;;;;;;10.12;96.74;95098.19;2067344;28;20644;-74
2024/02/08 11:59:59;;;;;;;3.50;0.80;;;;;;;10.18;97.35;95109.13;2063030;28;20237;-75
2024/02/08 12:01:03;;;;;;;2.03;0.80;;;;;;;10.11;97.42;95109.53;2063428;28;20277;-74
2024/02/08 12:02:09;;;;;;;2.83;0.90;;;;;;;10.12;97.58;95103.41;2064656;28;20196;-74
2024/02/08 12:03:16;;;;;;;2.95;0.93;;;;;;;10.07;96.31;95099.44;2065314;28;20246;-74
2024/02/08 12:04:18;;;;;;;6.10;1.15;;;;;;;9.94;95.85;95068.97;2065143;28;20677;-74
2024/02/08 12:05:20;;;;;;;4.07;0.90;;;;;;;10.10;96.63;95101.84;2066986;28;20198;-74
2024/02/08 12:06:23;;;;;;;3.00;0.90;;;;;;;10.07;96.24;95087.22;2062402;28;20427;-74
2024/02/08 12:07:25;;;;;;;20.70;1.38;;;;;;;10.06;95.83;95100.38;2066496;28;20192;-74
2024/02/08 12:08:28;;;;;;;3.47;0.98;;;;;;;10.03;95.50;95085.78;2063963;28;20264;-75
2024/02/08 12:09:43;;;;;;;6.45;0.90;;;;;;;10.09;95.77;95110.59;2065645;28;20199;-74
2024/02/08 12:10:49;;;;;;;2.50;1.33;;;;;;;10.03;94.98;95079.69;2065498;28;20191;-75
2024/02/08 12:11:51;;;;;;;3.22;1.00;;;;;;;10.11;95.08;95093.06;2069126;28;20237;-74
2024/02/08 12:12:54;;;;;;;8.70;1.17;;;;;;;10.13;95.38;95102.47;2066454;28;20808;-75
2024/02/08 12:14:13;;;;;;;2.85;0.80;;;;;;;10.06;95.36;95087.34;2065220;28;20413;-75
2024/02/08 12:15:28;;;;;;;4.32;0.90;;;;;;;10.08;93.85;95098.47;2065504;28;20226;-74
2024/02/08 12:16:30;;;;;;;6.97;1.23;;;;;;;10.06;93.93;95088.16;2064538;28;20207;-74
2024/02/08 12:17:31;;;;;;;5.88;0.80;;;;;;;10.06;94.43;95093.38;2065297;28;20265;-74
2024/02/08 12:18:33;;;;;;;7.22;2.25;;;;;;;10.07;94.58;95102.06;2068975;28;20233;-70
2024/02/08 12:19:37;;;;;;;11.70;5.80;;;;;;;10.06;94.50;95097.75;2069533;28;20281;-72
2024/02/08 12:20:43;;;;;;;7.18;3.03;;;;;;;10.08;94.46;95098.47;2068595;28;20198;-73
2024/02/08 12:22:03;;;;;;;14.40;2.00;;;;;;;10.07;93.89;95096.84;2063293;28;20199;-75
2024/02/08 12:23:06;;;;;;;3.45;1.20;;;;;;;10.07;93.74;95118.53;2061811;28;20230;-74
2024/02/08 12:24:15;;;;;;;3.78;1.10;;;;;;;9.97;93.71;95081.78;2064016;28;20418;-74
2024/02/08 12:25:17;;;;;;;9.75;1.40;;;;;;;10.01;94.22;95079.81;2059007;28;20629;-74
2024/02/08 12:30:04;;;;;;;6.22;2.40;;;;;;;10.10;93.51;95099.22;2090062;28;20561;-73
2024/02/08 12:31:16;;;;;;;5.72;1.00;;;;;;;10.13;93.91;95117.25;2090725;28;20866;-74
2024/02/08 12:32:19;;;;;;;8.20;1.10;;;;;;;10.14;91.81;95111.09;2088609;28;20287;-73
2024/02/08 12:33:21;;;;;;;4.90;1.02;;;;;;;10.18;91.84;95104.75;2083429;28;20200;-74
2024/02/08 12:34:32;;;;;;;9.15;2.17;;;;;;;10.27;91.42;95113.72;2084685;28;20270;-74
2024/02/08 12:38:17;;;;;;;7.38;1.40;;;;;;;10.16;91.23;95105.78;2077315;28;20565;-73
2024/02/08 12:39:19;;;;;;;5.95;1.20;;;;;;;10.14;91.93;95103.28;2071994;28;20284;-73
2024/02/08 12:40:21;;;;;;;6.95;1.10;;;;;;;10.16;91.83;95101.41;2072458;28;20244;-73
2024/02/08 12:41:23;;;;;;;8.95;1.10;;;;;;;10.20;91.51;95104.66;2074814;28;20870;-73
2024/02/08 12:42:25;;;;;;;7.47;1.58;;;;;;;10.25;90.41;95098.19;2069819;28;20256;-74
2024/02/08 12:43:27;;;;;;;7.07;1.90;;;;;;;10.36;90.95;95101.84;2073012;28;20208;-74
2024/02/08 12:44:29;;;;;;;7.05;1.20;;;;;;;10.36;90.52;95086.19;2074213;28;20209;-74
2024/02/08 12:45:31;;;;;;;7.97;1.77;;;;;;;10.49;90.16;95094.88;2073456;28;20229;-74
2024/02/08 12:46:32;;;;;;;8.32;1.48;;;;;;;10.46;89.48;95082.03;2073634;28;20241;-74
2024/02/08 12:47:34;;;;;;;6.00;1.60;;;;;;;10.50;89.57;95077.44;2074821;28;20698;-76
2024/02/08 12:48:36;;;;;;;8.73;2.05;;;;;;;10.51;89.01;95074.69;2075094;28;20272;-74
2024/02/08 12:49:39;;;;;;;8.60;1.65;;;;;;;10.80;88.43;95084.06;2073943;28;20290;-75
2024/02/08 12:50:43;;;;;;;7.45;2.00;;;;;;;10.83;87.63;95071.63;2074659;28;20205;-75
2024/02/08 12:51:45;;;;;;;18.13;3.35;;;;;;;10.84;87.58;95065.44;2074475;28;20204;-75
2024/02/08 12:52:55;;;;;;;9.15;1.50;;;;;;;10.81;86.16;95070.06;2072538;28;20256;-75
2024/02/08 12:53:57;;;;;;;8.02;1.42;;;;;;;10.99;85.34;95070.53;2079969;28;20208;-75
2024/02/08 12:55:00;;;;;;;19.73;2.63;;;;;;;11.08;83.16;95081.19;2080811;28;20221;-76
2024/02/08 12:56:09;;;;;;;11.93;2.17;;;;;;;11.41;81.98;95063.16;2072775;28;20570;-76
2024/02/08 12:57:15;;;;;;;14.55;2.22;;;;;;;11.64;82.30;95063.25;2074519;28;20266;-76
2024/02/08 12:58:18;;;;;;;15.07;2.13;;;;;;;11.82;81.19;95067.13;2066565;28;20242;-76
2024/02/08 12:59:20;;;;;;;10.77;2.25;;;;;;;11.83;81.34;95044.41;2073816;28;20201;-76
2024/02/08 13:00:21;;;;;;;22.13;2.67;;;;;;;11.91;81.76;95055.13;2075352;28;20735;-76
2024/02/08 13:01:23;;;;;;;11.73;2.03;;;;;;;12.12;81.53;95068.38;2074018;28;20656;-77
2024/02/08 13:02:25;;;;;;;12.05;2.10;;;;;;;12.06;80.96;95047.91;2074286;28;20278;-77
2024/02/08 13:03:27;;;;;;;11.25;3.58;;;;;;;11.95;79.51;95047.84;2073375;28;20215;-76
2024/02/08 13:04:29;;;;;;;30.63;8.30;;;;;;;11.97;80.37;95049.44;2074099;28;20721;-76
2024/02/08 13:05:36;;;;;;;17.67;6.18;;;;;;;11.90;80.41;95056.91;2075708;28;20285;-76
2024/02/08 13:06:38;;;;;;;9.15;2.97;;;;;;;11.76;80.49;95044.84;2073928;28;20321;-77
2024/02/08 13:07:41;;;;;;;10.57;2.22;;;;;;;11.56;80.34;95067.25;2079143;28;20255;-76
2024/02/08 13:08:45;;;;;;;24.35;2.67;;;;;;;11.46;81.40;95053.19;2073716;28;20552;-76
2024/02/08 13:09:47;;;;;;;26.55;2.88;;;;;;;11.37;81.84;95062.53;2073359;28;20205;-76
2024/02/08 13:10:56;;;;;;;11.20;2.13;;;;;;;11.18;81.63;95041.31;2073882;28;20638;-76
2024/02/08 13:12:29;;;;;;;13.48;2.28;;;;;;;11.17;82.55;95040.47;2073583;28;20202;-75
2024/02/08 13:13:31;;;;;;;8.82;1.85;;;;;;;11.05;81.68;95039.59;2071902;28;20675;-75
2024/02/08 13:14:33;;;;;;;13.45;2.63;;;;;;;11.09;82.66;95045.44;2073354;28;20209;-75
2024/02/08 13:15:35;;;;;;;8.75;2.42;;;;;;;10.92;82.55;95005.69;2074503;28;20199;-76
2024/02/08 13:16:37;;;;;;;16.23;3.38;;;;;;;11.15;82.67;95031.91;2071466;28;20214;-76
2024/02/08 13:17:39;;;;;;;15.15;2.10;;;;;;;11.16;83.01;95032.75;2068695;28;20219;-76
2024/02/08 13:18:43;;;;;;;17.98;2.75;;;;;;;11.28;83.39;95037.09;2071865;28;20200;-77
2024/02/08 13:19:49;;;;;;;10.85;2.38;;;;;;;11.43;82.90;95037.75;2073311;28;20280;-76
2024/02/08 13:20:50;;;;;;;9.93;2.42;;;;;;;11.42;82.38;95023.81;2082136;28;20194;-76
2024/02/08 13:21:55;;;;;;;10.00;2.00;;;;;;;11.37;81.51;95028.56;2083773;28;20743;-76
2024/02/08 13:22:57;;;;;;;13.48;2.22;;;;;;;11.34;82.75;95038.41;2072931;28;20234;-75
2024/02/08 13:23:59;;;;;;;15.40;2.95;;;;;;;11.34;82.74;95035.78;2075408;28;20214;-76
2024/02/08 13:25:03;;;;;;;8.73;1.90;;;;;;;11.33;82.89;95044.59;2077493;28;20194;-76
2024/02/08 13:26:06;;;;;;;21.05;2.80;;;;;;;11.55;82.16;95030.78;2073991;28;20206;-75
2024/02/08 13:27:18;;;;;;;23.58;2.40;;;;;;;11.81;81.10;95020.97;2071162;28;20198;-75
2024/02/08 13:28:23;;;;;;;16.00;1.88;;;;;;;11.81;79.55;95020.13;2071669;28;20657;-75
2024/02/08 13:29:26;;;;;;;15.40;2.60;;;;;;;11.54;80.56;95024.72;2070750;28;20252;-75
2024/02/08 13:30:31;;;;;;;12.55;3.45;;;;;;;11.48;81.42;95025.16;2071293;28;20198;-75
2024/02/08 13:31:38;;;;;;;16.25;2.72;;;;;;;11.44;81.09;95035.00;2073917;28;20248;-76
2024/02/08 13:32:39;;;;;;;9.73;2.80;;;;;;;11.39;81.40;95038.94;2075232;28;20368;-75
2024/02/08 13:33:44;;;;;;;12.98;2.53;;;;;;;11.28;81.81;95031.84;2080184;28;20199;-76
2024/02/08 13:34:48;;;;;;;17.23;3.05;;;;;;;11.31;81.64;95033.41;2070089;28;20195;-75
2024/02/08 13:35:53;;;;;;;14.60;3.03;;;;;;;11.31;82.16;95025.56;2073851;28;20207;-75
2024/02/08 13:36:58;;;;;;;16.90;3.30;;;;;;;11.29;82.03;95033.53;2072914;28;20230;-76
2024/02/08 13:38:00;;;;;;;11.95;1.98;;;;;;;11.28;82.50;95037.09;2071256;28;20304;-76
2024/02/08 13:39:03;;;;;;;15.40;2.95;;;;;;;11.15;82.57;95018.88;2073062;28;20541;-75
2024/02/08 13:40:07;;;;;;;18.88;2.95;;;;;;;11.23;82.73;95024.34;2074236;28;20251;-75
2024/02/08 13:41:12;;;;;;;17.92;2.60;;;;;;;11.23;82.77;95033.97;2072964;28;20236;-75
2024/02/08 13:42:19;;;;;;;14.95;2.38;;;;;;;11.15;82.73;95034.53;2072381;28;20212;-76
2024/02/08 13:43:20;;;;;;;11.15;2.30;;;;;;;11.06;83.38;95036.03;2073124;28;20255;-75
2024/02/08 13:44:24;;;;;;;14.13;3.25;;;;;;;11.11;84.03;95040.94;2072924;28;20209;-75
2024/02/08 13:45:28;;;;;;;6.18;2.00;;;;;;;11.05;83.91;95036.16;2074245;28;20954;-76
2024/02/08 13:46:30;;;;;;;14.75;2.83;;;;;;;11.03;83.46;95038.03;2072294;28;20195;-75
2024/02/08 13:47:37;;;;;;;15.48;2.38;;;;;;;11.01;84.26;95058.19;2073772;28;20847;-75
2024/02/08 13:48:39;;;;;;;7.82;2.35;;;;;;;10.93;84.24;95040.47;2074545;28;20717;-75
2024/02/08 13:49:41;;;;;;;15.10;2.80;;;;;;;11.03;84.69;95040.63;2063139;28;20199;-75
2024/02/08 13:50:43;;;;;;;12.45;2.80;;;;;;;11.06;84.21;95053.50;2066907;28;20206;-74
2024/02/08 13:51:45;;;;;;;7.53;2.00;;;;;;;11.06;84.70;95045.66;2071848;28;20578;-75
2024/02/08 13:52:53;;;;;;;7.35;2.45;;;;;;;11.05;84.44;95044.81;2061970;28;20223;-75
2024/02/08 13:53:55;;;;;;;17.98;3.13;;;;;;;10.97;84.31;95043.69;2067885;28;20318;-75
2024/02/08 13:54:58;;;;;;;18.70;3.72;;;;;;;10.99;84.65;95047.03;2067360;28;20261;-75
2024/02/08 13:56:02;;;;;;;21.45;2.03;;;;;;;10.90;84.45;95045.91;2067685;28;20195;-74
2024/02/08 13:57:14;;;;;;;10.90;2.38;;;;;;;10.86;84.72;95065.38;2066253;28;20735;-75
2024/02/08 13:58:17;;;;;;;19.48;2.50;;;;;;;10.85;84.76;95056.69;2066146;28;20590;-74
2024/02/08 13:59:19;;;;;;;9.25;2.45;;;;;;;10.75;85.00;95066.09;2066034;28;20227;-75
2024/02/08 14:00:22;;;;;;;18.40;2.67;;;;;;;10.67;84.95;95045.75;2066776;28;20587;-74
2024/02/08 14:01:25;;;;;;;15.60;2.40;;;;;;;10.71;85.05;95057.66;2067973;28;20289;-75
2024/02/08 14:27:10;;;;;;;22.17;3.97;;;;;;;10.22;87.13;95019.28;2079083;28;20224;-74
2024/02/08 14:28:14;;;;;;;10.32;2.45;;;;;;;10.26;87.34;95028.59;2076706;28;20249;-75
2024/02/08 14:29:15;;;;;;;29.52;4.13;;;;;;;10.33;86.63;95040.25;2087883;28;20786;-73
2024/02/08 14:30:19;;;;;;;25.92;3.30;;;;;;;10.35;86.75;95025.34;2090195;28;20324;-74
2024/02/08 14:31:21;;;;;;;16.00;3.88;;;;;;;10.38;86.71;95022.53;2077946;28;20818;-73
2024/02/08 14:32:23;;;;;;;18.38;3.85;;;;;;;10.38;86.51;95021.72;2079551;28;20247;-73
2024/02/08 14:33:37;;;;;;;17.98;3.28;;;;;;;10.37;86.04;95015.63;2084942;28;20654;-75
2024/02/08 14:34:43;;;;;;;28.75;3.38;;;;;;;10.34;86.11;95018.44;2081253;28;20201;-74
2024/02/08 14:35:47;;;;;;;25.65;3.92;;;;;;;10.34;86.39;95012.41;2083412;28;20611;-74
2024/02/08 14:36:48;;;;;;;8.13;2.80;;;;;;;10.41;86.19;95035.38;2080240;28;20232;-74
2024/02/08 14:37:53;;;;;;;21.75;3.38;;;;;;;10.38;86.18;95032.97;2079830;28;20245;-73
2024/02/08 14:38:55;;;;;;;15.05;2.70;;;;;;;10.24;85.82;95001.78;2082581;28;20301;-74
2024/02/08 14:45:38;;;;;;;15.63;2.85;;;;;;;10.02;87.24;95005.00;2109707;27;20544;-72
